Time;durP1;ratioP1;P1;durP2;ratioP2;P2;SDS_P1;SDS_P2;PMS_P1;PMS_P2;Temp;Humidity;BMP_temperature;BMP_pressure;BME280_temperature;BME280_humidity;BME280_pressure;Samples;Min_cycle;Max_cycle;Signal;HPM_P1;HPM_P2
2023/10/23 00:01:53;;;;;;;10.20;5.30;;;;;;;22.14;54.82;98547.20;109545;1253;72554;-52
2023/10/23 00:04:20;;;;;;;15.20;6.90;;;;;;;22.13;55.04;98547.18;109509;1254;60518;-52
2023/10/23 00:06:47;;;;;;;8.00;3.40;;;;;;;22.23;54.70;98548.75;109641;1253;59982;-52
2023/10/23 00:09:14;;;;;;;7.70;3.90;;;;;;;22.13;55.22;98543.58;109585;1252;73602;-52
2023/10/23 00:11:40;;;;;;;5.40;3.00;;;;;;;22.16;55.17;98546.23;109587;1252;69076;-52
2023/10/23 00:14:07;;;;;;;6.50;4.10;;;;;;;21.99;55.89;98548.05;109574;1252;71687;-52
2023/10/23 00:16:33;;;;;;;5.20;2.90;;;;;;;22.08;55.71;98549.95;109520;1252;60922;-52
2023/10/23 00:19:00;;;;;;;14.00;6.20;;;;;;;22.07;55.70;98546.73;109448;1253;59080;-52
2023/10/23 00:21:27;;;;;;;9.50;4.70;;;;;;;21.98;55.98;98548.17;109595;1254;74929;-51
2023/10/23 00:23:53;;;;;;;10.60;3.30;;;;;;;21.89;56.40;98550.12;109574;1253;67758;-52
2023/10/23 00:26:20;;;;;;;8.50;4.80;;;;;;;21.82;56.80;98548.79;109541;1252;72525;-52
2023/10/23 00:28:50;;;;;;;5.80;3.50;;;;;;;21.85;56.70;98549.17;109464;1253;61689;-52
2023/10/23 00:31:16;;;;;;;12.30;6.00;;;;;;;21.84;56.90;98546.35;109546;1253;60044;-52
2023/10/23 00:33:43;;;;;;;8.70;2.70;;;;;;;21.75;57.18;98545.18;109501;1252;73398;-52
2023/10/23 00:36:10;;;;;;;10.10;5.00;;;;;;;21.52;58.18;98546.71;109533;1253;67600;-52
2023/10/23 00:38:36;;;;;;;3.20;2.80;;;;;;;21.55;58.09;98548.11;109589;1253;72379;-52
2023/10/23 00:41:03;;;;;;;11.40;5.80;;;;;;;21.65;57.90;98548.43;109538;1254;61767;-52
2023/10/23 00:43:30;;;;;;;9.60;6.80;;;;;;;21.50;58.46;98545.71;109691;1251;59026;-51
2023/10/23 00:46:01;;;;;;;6.90;5.00;;;;;;;21.50;58.51;98549.84;109725;1253;73313;-52
2023/10/23 00:48:27;;;;;;;16.90;12.00;;;;;;;21.38;59.06;98547.97;109741;1251;67549;-51
2023/10/23 00:50:58;;;;;;;9.90;4.00;;;;;;;21.31;59.35;98552.84;109728;1251;71276;-52
2023/10/23 00:53:26;;;;;;;5.50;3.10;;;;;;;21.33;59.66;98555.23;109745;1251;60475;-51
2023/10/23 00:55:53;;;;;;;5.90;3.20;;;;;;;21.17;60.47;98555.52;109502;1251;60126;-52
2023/10/23 00:58:20;;;;;;;4.40;3.30;;;;;;;21.13;60.92;98554.22;109728;1251;74560;-51
2023/10/23 01:00:48;;;;;;;6.40;2.60;;;;;;;21.18;60.78;98557.82;109750;1251;68755;-51
2023/10/23 01:03:14;;;;;;;6.20;3.80;;;;;;;21.17;61.07;98552.00;109622;1251;72779;-52
2023/10/23 01:05:41;;;;;;;7.90;3.60;;;;;;;21.36;60.39;98557.42;109704;1251;61687;-52
2023/10/23 01:08:08;;;;;;;9.70;3.00;;;;;;;21.38;60.29;98556.47;109645;1250;60209;-52
2023/10/23 01:10:35;;;;;;;8.40;4.30;;;;;;;21.53;59.79;98567.02;109630;1251;74645;-52
2023/10/23 01:13:08;;;;;;;8.60;3.70;;;;;;;21.61;59.40;98565.98;109618;1251;68782;-52
2023/10/23 01:15:35;;;;;;;13.30;5.10;;;;;;;21.43;60.09;98572.75;109728;1250;72342;-52
2023/10/23 01:18:05;;;;;;;17.20;6.80;;;;;;;21.35;60.51;98576.19;109575;1251;61743;-51
2023/10/23 01:20:31;;;;;;;20.20;8.40;;;;;;;21.54;60.02;98581.15;109319;1251;60118;-52
2023/10/23 01:22:58;;;;;;;4.50;3.70;;;;;;;21.35;60.54;98575.48;109622;1250;74501;-52
2023/10/23 01:25:26;;;;;;;18.20;9.60;;;;;;;21.26;60.88;98572.13;109773;1251;68704;-52
2023/10/23 01:27:53;;;;;;;13.80;6.90;;;;;;;21.50;59.82;98577.53;109749;1250;71476;-52
2023/10/23 01:30:19;;;;;;;4.80;2.20;;;;;;;21.67;58.77;98578.98;109733;1251;61686;-52
2023/10/23 01:32:46;;;;;;;9.30;3.20;;;;;;;21.35;59.52;98576.42;109641;1256;59115;-52
2023/10/23 01:35:13;;;;;;;4.70;2.60;;;;;;;21.59;58.43;98590.09;109723;1251;74650;-52
2023/10/23 01:37:41;;;;;;;4.20;3.10;;;;;;;21.52;58.27;98584.70;109753;1250;68623;-52
2023/10/23 01:40:09;;;;;;;5.90;2.60;;;;;;;21.49;58.03;98588.89;109608;1251;72574;-52
2023/10/23 01:42:35;;;;;;;4.60;2.50;;;;;;;21.49;58.06;98590.84;109639;1251;61292;-52
2023/10/23 01:45:03;;;;;;;6.10;5.20;;;;;;;21.67;57.30;98593.35;109357;1251;59118;-52
2023/10/23 01:47:30;;;;;;;21.00;11.40;;;;;;;21.57;57.55;98595.05;109612;1251;73126;-52
2023/10/23 01:49:57;;;;;;;60.90;26.30;;;;;;;21.68;57.14;98599.54;109512;1253;68560;-52
2023/10/23 01:52:23;;;;;;;48.20;20.10;;;;;;;21.56;57.41;98601.09;109529;1254;71217;-52
2023/10/23 01:54:50;;;;;;;18.60;8.60;;;;;;;21.31;58.25;98598.40;109522;1254;61802;-52
2023/10/23 01:57:17;;;;;;;72.60;37.70;;;;;;;21.27;58.30;98602.87;109535;1253;60091;-52
2023/10/23 01:59:44;;;;;;;21.80;14.20;;;;;;;21.05;58.97;98604.90;109598;1252;73282;-52
2023/10/23 02:02:11;;;;;;;7.70;6.70;;;;;;;21.07;58.72;98607.15;109311;1253;68774;-53
2023/10/23 02:04:39;;;;;;;17.20;8.30;;;;;;;21.20;57.73;98611.26;109565;1253;72564;-53
2023/10/23 02:07:06;;;;;;;9.90;6.00;;;;;;;21.01;57.91;98613.67;109503;1252;61811;-52
2023/10/23 02:09:33;;;;;;;11.40;6.00;;;;;;;21.06;57.75;98617.64;109527;1253;59977;-53
2023/10/23 02:12:01;;;;;;;8.10;5.00;;;;;;;20.90;57.75;98620.00;109566;1253;73576;-52
2023/10/23 02:14:28;;;;;;;4.80;4.00;;;;;;;20.55;58.59;98617.13;109517;1253;67426;-52
2023/10/23 02:16:54;;;;;;;3.40;3.00;;;;;;;20.76;57.91;98613.82;109463;1252;72620;-49
2023/10/23 02:19:21;;;;;;;7.70;4.70;;;;;;;20.61;58.10;98614.84;109411;1254;61795;-51
2023/10/23 02:21:50;;;;;;;6.40;4.10;;;;;;;20.67;57.63;98620.48;109557;1252;59096;-51
2023/10/23 02:24:19;;;;;;;12.10;7.40;;;;;;;20.67;57.62;98617.80;109495;1254;74559;-51
2023/10/23 02:26:46;;;;;;;;;;;;;;;20.64;57.65;98622.09;109570;1253;67100;-51
2023/10/23 02:29:14;;;;;;;6.70;3.60;;;;;;;20.54;58.23;98621.61;109549;1253;72407;-53
2023/10/23 02:31:40;;;;;;;4.10;3.70;;;;;;;20.80;57.25;98626.64;109511;1253;60470;-51
2023/10/23 02:34:07;;;;;;;6.60;4.40;;;;;;;20.90;56.91;98629.34;109470;1252;60003;-51
2023/10/23 02:36:34;;;;;;;9.00;3.70;;;;;;;20.87;56.85;98632.06;109278;1252;73311;-51
2023/10/23 02:39:01;;;;;;;3.70;2.60;;;;;;;20.81;57.08;98631.56;109539;1252;68722;-51
2023/10/23 02:41:31;;;;;;;6.50;3.10;;;;;;;20.49;58.06;98631.81;109538;1253;72360;-51
2023/10/23 02:43:57;;;;;;;8.70;5.10;;;;;;;20.43;57.99;98632.17;109679;1251;60889;-51
2023/10/23 02:46:24;;;;;;;2.20;2.00;;;;;;;20.70;57.13;98630.06;109610;1251;58917;-50
2023/10/23 02:48:51;;;;;;;10.10;7.70;;;;;;;20.64;57.15;98628.24;109768;1251;73417;-51
2023/10/23 02:51:18;;;;;;;2.70;2.40;;;;;;;20.53;57.29;98625.33;109742;1250;67427;-51
2023/10/23 02:53:45;;;;;;;5.60;4.60;;;;;;;20.73;56.71;98629.14;109787;1250;71844;-51
2023/10/23 02:56:13;;;;;;;3.30;3.00;;;;;;;20.53;57.02;98622.03;109714;1250;61968;-53
2023/10/23 02:58:40;;;;;;;6.70;2.00;;;;;;;20.46;57.52;98632.59;109600;1251;60045;-50
2023/10/23 03:01:20;;;;;;;2.60;2.30;;;;;;;20.54;57.43;98627.15;109752;1250;74559;-51
2023/10/23 03:03:47;;;;;;;3.40;2.50;;;;;;;20.44;57.87;98627.29;109749;1251;69037;-51
2023/10/23 03:06:14;;;;;;;3.20;2.60;;;;;;;20.38;58.22;98629.73;109695;1251;72424;-51
2023/10/23 03:08:41;;;;;;;2.30;2.10;;;;;;;20.27;58.78;98628.14;109708;1250;60491;-51
2023/10/23 03:11:08;;;;;;;4.20;2.10;;;;;;;20.11;59.62;98632.39;109742;1251;59088;-51
2023/10/23 03:13:35;;;;;;;3.50;2.70;;;;;;;20.02;60.37;98627.91;109757;1250;74415;-51
2023/10/23 03:16:02;;;;;;;8.30;3.20;;;;;;;20.43;59.12;98637.95;109621;1251;68568;-50
2023/10/23 03:18:29;;;;;;;2.90;2.40;;;;;;;20.45;58.69;98639.48;109545;1252;72669;-51
2023/10/23 03:20:59;;;;;;;7.00;3.40;;;;;;;20.08;59.95;98639.39;109331;1253;60543;-51
2023/10/23 03:23:32;;;;;;;4.00;2.20;;;;;;;20.06;59.72;98637.51;109630;1251;58842;-52
2023/10/23 03:26:00;;;;;;;3.00;2.50;;;;;;;20.52;58.15;98643.99;109782;1250;73985;-51
2023/10/23 03:28:26;;;;;;;5.10;2.50;;;;;;;20.50;57.79;98647.44;109725;1250;68850;-51
2023/10/23 03:30:53;;;;;;;6.60;3.20;;;;;;;20.41;57.56;98648.84;109639;1250;72678;-52
2023/10/23 03:33:20;;;;;;;3.80;3.40;;;;;;;20.06;58.66;98639.54;109624;1251;61665;-52
2023/10/23 03:35:47;;;;;;;3.10;2.40;;;;;;;19.85;59.43;98637.81;109701;1250;60155;-51
2023/10/23 03:38:14;;;;;;;3.70;2.20;;;;;;;19.82;59.57;98634.30;109503;1251;73318;-51
2023/10/23 03:40:41;;;;;;;2.20;2.10;;;;;;;19.78;59.51;98638.85;109478;1251;69324;-51
2023/10/23 03:43:08;;;;;;;2.20;2.00;;;;;;;20.01;58.75;98651.38;109605;1251;71262;-51
2023/10/23 03:45:36;;;;;;;3.00;2.70;;;;;;;19.92;58.82;98648.81;109513;1251;60592;-51
2023/10/23 03:48:03;;;;;;;4.70;3.10;;;;;;;20.13;58.05;98645.31;109611;1251;59561;-51
2023/10/23 03:50:30;;;;;;;4.20;2.50;;;;;;;19.80;59.08;98645.21;109522;1252;73486;-51
2023/10/23 03:52:57;;;;;;;40.40;19.30;;;;;;;19.87;58.91;98640.80;109540;1252;68832;-51
2023/10/23 03:55:24;;;;;;;3.40;2.70;;;;;;;19.90;58.56;98638.14;109520;1252;70805;-52
2023/10/23 03:57:51;;;;;;;10.10;4.00;;;;;;;19.64;59.91;98642.76;109500;1252;60447;-51
2023/10/23 04:00:17;;;;;;;2.70;2.50;;;;;;;19.96;58.56;98647.54;109369;1252;60164;-50
2023/10/23 04:02:44;;;;;;;16.80;8.20;;;;;;;19.69;59.36;98647.48;109506;1252;74727;-51
2023/10/23 04:05:11;;;;;;;4.00;2.80;;;;;;;19.81;58.88;98647.49;109537;1251;67189;-51
2023/10/23 04:07:37;;;;;;;4.10;2.60;;;;;;;19.86;58.65;98648.35;109531;1252;72562;-52
2023/10/23 04:10:08;;;;;;;3.60;2.60;;;;;;;19.64;59.47;98649.84;109536;1252;61742;-51
2023/10/23 04:12:35;;;;;;;4.60;3.30;;;;;;;19.91;58.48;98649.96;109501;1252;59433;-51
2023/10/23 04:15:03;;;;;;;4.60;2.70;;;;;;;19.75;59.20;98656.92;109582;1252;74462;-51
2023/10/23 04:17:30;;;;;;;;;;;;;;;19.53;59.90;98653.05;109452;1253;67429;-51
2023/10/23 04:19:57;;;;;;;5.30;3.60;;;;;;;19.37;60.68;98652.63;109518;1252;72661;-51
2023/10/23 04:22:24;;;;;;;4.80;2.60;;;;;;;19.54;60.40;98662.09;109585;1252;61746;-51
2023/10/23 04:24:53;;;;;;;4.30;3.50;;;;;;;19.61;60.01;98665.37;109525;1253;60135;-51
2023/10/23 04:27:20;;;;;;;5.50;3.40;;;;;;;19.62;59.86;98664.64;109541;1252;75228;-51
2023/10/23 04:29:47;;;;;;;5.50;4.60;;;;;;;19.58;60.03;98664.56;109528;1252;68790;-52
2023/10/23 04:32:14;;;;;;;4.40;4.00;;;;;;;19.51;60.48;98674.13;109411;1252;142517;-52
2023/10/23 04:34:40;;;;;;;9.20;5.40;;;;;;;19.62;60.00;98682.45;109352;1251;60365;-51
2023/10/23 04:37:07;;;;;;;32.60;16.80;;;;;;;19.50;60.60;98678.44;109577;1251;59725;-51
2023/10/23 04:39:34;;;;;;;11.30;6.80;;;;;;;19.63;59.85;98683.09;109525;1252;74427;-51
2023/10/23 04:42:01;;;;;;;9.90;6.40;;;;;;;19.30;61.30;98679.10;109514;1252;68512;-51
2023/10/23 04:44:28;;;;;;;12.30;7.20;;;;;;;19.29;61.47;98686.00;109714;1250;72548;-52
2023/10/23 04:46:55;;;;;;;3.70;3.40;;;;;;;19.40;60.91;98689.36;109694;1250;60882;-51
2023/10/23 04:49:22;;;;;;;13.90;5.90;;;;;;;19.64;59.97;98694.52;109708;1250;58997;-52
2023/10/23 04:51:49;;;;;;;4.00;3.60;;;;;;;19.74;59.35;98700.08;109776;1250;74437;-52
2023/10/23 04:54:15;;;;;;;12.00;7.30;;;;;;;19.40;60.79;98699.54;109364;1250;69039;-52
2023/10/23 04:56:42;;;;;;;10.40;5.60;;;;;;;19.45;60.52;98697.39;109723;1250;72410;-52
2023/10/23 04:59:09;;;;;;;4.30;3.90;;;;;;;19.53;60.17;98706.45;109750;1250;60465;-52
2023/10/23 05:01:35;;;;;;;4.90;4.40;;;;;;;19.44;60.69;98704.95;109639;1251;59960;-52
2023/10/23 05:04:02;;;;;;;4.90;4.30;;;;;;;19.78;59.08;98712.58;109624;1251;74630;-52
2023/10/23 05:06:29;;;;;;;6.10;3.80;;;;;;;20.04;58.17;98718.57;109369;1251;67504;-53
2023/10/23 05:08:56;;;;;;;3.40;3.10;;;;;;;20.27;57.31;98721.36;109580;1250;72593;-51
2023/10/23 05:11:23;;;;;;;6.30;3.30;;;;;;;20.43;56.18;98716.02;109681;1251;61328;-51
2023/10/23 05:13:50;;;;;;;3.10;2.80;;;;;;;20.17;57.13;98716.89;109649;1250;60045;-52
2023/10/23 05:16:17;;;;;;;4.40;3.40;;;;;;;20.40;56.19;98721.15;109714;1250;73676;-51
2023/10/23 05:18:43;;;;;;;3.70;3.20;;;;;;;20.18;57.12;98719.31;109628;1250;68564;-52
2023/10/23 05:21:11;;;;;;;3.70;3.30;;;;;;;20.39;56.40;98732.80;109736;1250;72640;-51
2023/10/23 05:23:39;;;;;;;5.70;3.70;;;;;;;20.75;54.98;98734.70;109616;1250;61890;-52
2023/10/23 05:26:06;;;;;;;7.90;4.70;;;;;;;20.95;54.09;98731.83;109712;1250;59990;-52
2023/10/23 05:28:33;;;;;;;7.60;4.90;;;;;;;20.49;55.60;98730.16;109749;1250;74691;-52
2023/10/23 05:31:00;;;;;;;7.90;4.80;;;;;;;20.94;54.12;98734.05;109461;1253;67704;-53
2023/10/23 05:33:27;;;;;;;6.90;4.20;;;;;;;20.95;53.92;98734.23;109564;1251;71185;-52
2023/10/23 05:36:04;;;;;;;7.40;4.70;;;;;;;21.04;53.59;98740.52;109678;1250;61746;-52
2023/10/23 05:38:31;;;;;;;8.80;5.70;;;;;;;21.18;53.36;98749.11;109687;1250;59015;-52
2023/10/23 05:40:58;;;;;;;8.10;5.10;;;;;;;21.09;53.80;98750.25;109785;1250;74676;-52
2023/10/23 05:43:26;;;;;;;4.10;3.60;;;;;;;21.62;52.20;98758.53;109686;1251;68647;-52
2023/10/23 05:45:53;;;;;;;6.70;6.00;;;;;;;21.42;52.57;98758.11;109538;1251;72609;-52
2023/10/23 05:48:20;;;;;;;5.80;4.60;;;;;;;21.42;52.78;98764.73;109472;1253;60605;-52
2023/10/23 05:51:00;;;;;;;4.40;3.90;;;;;;;21.25;53.12;98764.77;109552;1252;58938;-52
2023/10/23 05:53:27;;;;;;;8.50;3.00;;;;;;;21.15;53.38;98756.12;109348;1252;74868;-52
2023/10/23 05:55:54;;;;;;;4.70;3.50;;;;;;;20.97;54.51;98766.25;109552;1252;67223;-52
2023/10/23 05:58:21;;;;;;;7.10;3.90;;;;;;;21.11;54.19;98767.13;109388;1252;72776;-52
2023/10/23 06:00:47;;;;;;;3.70;2.70;;;;;;;21.06;54.20;98764.43;109338;1253;61704;-52
2023/10/23 06:03:14;;;;;;;7.70;4.70;;;;;;;21.10;54.24;98760.33;109443;1252;58998;-52
2023/10/23 06:05:41;;;;;;;6.60;4.10;;;;;;;21.47;53.02;98774.55;109577;1252;74387;-52
2023/10/23 06:08:09;;;;;;;5.70;4.20;;;;;;;21.84;51.87;98770.31;109568;1252;68680;-52
2023/10/23 06:10:44;;;;;;;21.70;4.90;;;;;;;21.47;52.48;98770.02;109342;1253;71688;-52
2023/10/23 06:13:11;;;;;;;5.10;3.70;;;;;;;21.57;52.79;98773.67;109389;1252;61726;-52
2023/10/23 06:15:38;;;;;;;3.60;3.10;;;;;;;21.64;52.63;98776.85;109547;1252;60242;-52
2023/10/23 06:18:05;;;;;;;11.60;6.50;;;;;;;21.62;52.66;98776.48;109559;1252;73918;-52
2023/10/23 06:20:32;;;;;;;3.20;2.80;;;;;;;21.32;53.73;98778.45;109524;1252;67539;-52
2023/10/23 06:22:59;;;;;;;25.10;13.10;;;;;;;20.62;56.25;98777.25;109505;1252;72714;-51
2023/10/23 06:25:29;;;;;;;8.10;4.50;;;;;;;20.74;56.22;98780.71;109554;1253;61784;-52
2023/10/23 06:27:56;;;;;;;5.70;4.20;;;;;;;20.96;55.54;98775.96;109474;1252;60115;-52
2023/10/23 06:30:23;;;;;;;5.70;3.10;;;;;;;21.20;54.65;98774.05;109621;1251;74642;-51
2023/10/23 06:32:49;;;;;;;9.80;2.90;;;;;;;21.57;53.36;98784.38;109668;1251;68734;-51
2023/10/23 06:35:16;;;;;;;5.70;3.50;;;;;;;21.77;52.31;98781.83;109543;1251;72437;-51
2023/10/23 06:37:44;;;;;;;3.20;2.90;;;;;;;21.84;52.01;98787.70;109546;1252;61743;-52
2023/10/23 06:40:11;;;;;;;5.60;3.20;;;;;;;21.96;51.14;98789.23;109589;1252;58956;-53
2023/10/23 06:42:37;;;;;;;6.10;3.10;;;;;;;21.76;51.69;98783.52;109527;1251;74644;-51
2023/10/23 06:45:05;;;;;;;2.90;2.60;;;;;;;21.65;51.92;98791.54;109700;1250;67904;-51
2023/10/23 06:47:32;;;;;;;5.20;3.10;;;;;;;22.28;50.06;98800.23;109430;1250;71590;-52
2023/10/23 06:49:59;;;;;;;7.40;3.20;;;;;;;22.76;48.34;98804.16;109724;1250;60542;-53
2023/10/23 06:52:26;;;;;;;3.60;2.90;;;;;;;22.49;48.90;98794.86;109717;1250;59364;-52
2023/10/23 06:54:53;;;;;;;6.50;2.60;;;;;;;22.45;48.78;98810.84;109760;1254;74544;-52
2023/10/23 06:57:19;;;;;;;4.20;3.10;;;;;;;22.69;48.34;98803.76;109730;1250;68527;-52
2023/10/23 06:59:46;;;;;;;5.10;2.60;;;;;;;23.03;47.32;98819.05;109590;1250;72455;-52
2023/10/23 07:02:13;;;;;;;4.90;2.90;;;;;;;22.72;48.00;98823.81;109662;1250;61722;-53
2023/10/23 07:04:39;;;;;;;6.50;3.60;;;;;;;22.55;48.64;98824.63;109712;1250;60177;-52
2023/10/23 07:07:06;;;;;;;8.60;3.70;;;;;;;23.32;47.03;98836.47;109707;1250;73179;-52
2023/10/23 07:09:45;;;;;;;7.10;3.30;;;;;;;23.48;46.40;98833.84;109733;1250;68761;-53
2023/10/23 07:12:12;;;;;;;4.60;3.80;;;;;;;23.14;46.82;98839.25;109728;1250;72557;-51
2023/10/23 07:14:39;;;;;;;5.50;3.20;;;;;;;22.51;48.19;98824.27;109342;1256;61765;-52
2023/10/23 07:17:05;;;;;;;10.00;4.00;;;;;;;22.35;48.32;98834.81;109672;1250;58889;-51
2023/10/23 07:19:32;;;;;;;4.80;4.20;;;;;;;23.11;47.05;98841.20;109525;1252;74572;-52
2023/10/23 07:21:59;;;;;;;19.20;13.90;;;;;;;22.99;46.85;98838.09;109523;1252;67431;-52
2023/10/23 07:24:25;;;;;;;12.20;7.00;;;;;;;22.95;46.62;98836.83;109584;1250;71549;-52
2023/10/23 07:26:52;;;;;;;9.80;5.90;;;;;;;22.63;47.28;98819.27;109555;1250;60522;-53
2023/10/23 07:29:18;;;;;;;12.90;6.50;;;;;;;22.19;48.46;98832.90;109617;1250;60236;-52
2023/10/23 07:31:45;;;;;;;13.80;8.20;;;;;;;22.79;46.93;98845.88;109650;1250;74528;-53
2023/10/23 07:34:12;;;;;;;3.30;2.80;;;;;;;22.79;46.89;98847.38;109660;1250;68453;-52
2023/10/23 07:36:40;;;;;;;13.00;9.90;;;;;;;22.41;47.76;98853.11;109509;1250;71343;-52
2023/10/23 07:39:07;;;;;;;11.70;8.20;;;;;;;22.38;47.83;98851.54;109708;1250;60427;-52
2023/10/23 07:41:34;;;;;;;3.80;3.30;;;;;;;22.42;47.82;98853.67;109732;1250;60111;-52
2023/10/23 07:44:00;;;;;;;4.50;3.60;;;;;;;22.25;47.92;98855.32;109684;1251;74472;-52
2023/10/23 07:46:27;;;;;;;8.20;5.80;;;;;;;22.17;47.96;98859.23;109559;1250;66503;-53
2023/10/23 07:48:54;;;;;;;3.90;3.50;;;;;;;22.31;48.01;98851.75;109526;1252;72709;-53
2023/10/23 07:51:20;;;;;;;3.50;3.10;;;;;;;22.52;47.48;98847.99;109544;1252;60592;-52
2023/10/23 07:53:47;;;;;;;5.80;3.60;;;;;;;22.96;46.14;98860.64;109517;1252;60162;-52
2023/10/23 07:56:14;;;;;;;5.20;3.50;;;;;;;23.33;45.21;98864.81;109526;1252;73205;-51
2023/10/23 07:58:41;;;;;;;4.20;3.80;;;;;;;23.10;45.77;98863.55;109488;1251;67192;-52
2023/10/23 08:01:09;;;;;;;6.90;4.20;;;;;;;23.03;45.55;98862.74;109433;1252;72936;-52
2023/10/23 08:03:36;;;;;;;;;;;;;;;23.15;45.21;98870.72;109540;1253;61980;-53
2023/10/23 08:06:04;;;;;;;6.20;3.00;;;;;;;23.19;44.90;98873.94;109574;1253;59837;-53
2023/10/23 08:08:33;;;;;;;15.10;8.00;;;;;;;22.79;45.95;98878.63;109505;1252;74795;-50
2023/10/23 08:11:03;;;;;;;5.00;3.70;;;;;;;22.57;46.76;98876.27;109545;1252;67584;-51
2023/10/23 08:13:30;;;;;;;8.90;3.50;;;;;;;22.54;46.45;98884.54;109537;1253;71162;-50
2023/10/23 08:15:57;;;;;;;7.40;4.20;;;;;;;22.13;47.39;98880.36;109505;1252;60791;-52
2023/10/23 08:18:27;;;;;;;5.90;3.60;;;;;;;22.20;47.23;98893.27;109505;1252;58996;-52
2023/10/23 08:21:10;;;;;;;4.40;3.60;;;;;;;22.08;47.58;98888.16;109538;1252;74354;-50
2023/10/23 08:23:37;;;;;;;7.50;3.90;;;;;;;22.22;47.67;98895.44;109553;1252;67341;-53
2023/10/23 08:26:03;;;;;;;8.50;4.20;;;;;;;22.00;48.01;98888.46;109553;1252;72153;-52
2023/10/23 08:28:30;;;;;;;6.30;4.80;;;;;;;22.12;47.55;98897.58;109532;1252;61077;-52
2023/10/23 08:31:17;;;;;;;5.10;3.90;;;;;;;22.05;47.72;98881.69;109561;1252;59987;-53
2023/10/23 08:34:03;;;;;;;6.70;3.80;;;;;;;22.30;46.95;98904.59;109551;1252;73596;-51
2023/10/23 08:36:31;;;;;;;6.10;4.20;;;;;;;22.28;46.94;98908.82;109316;1253;68641;-51
2023/10/23 08:38:57;;;;;;;5.60;3.80;;;;;;;22.40;46.83;98906.67;109510;1252;72785;-56
2023/10/23 08:41:25;;;;;;;10.00;3.80;;;;;;;22.12;47.28;98903.36;109610;1251;60588;-53
2023/10/23 08:43:51;;;;;;;4.50;4.00;;;;;;;22.30;46.93;98903.66;109174;1251;60459;-51
2023/10/23 08:46:19;;;;;;;9.40;4.00;;;;;;;22.29;46.84;98909.23;109595;1251;74644;-52
2023/10/23 08:48:46;;;;;;;6.80;3.50;;;;;;;22.09;47.35;98891.62;109697;1250;67300;-52
2023/10/23 08:51:13;;;;;;;9.00;4.30;;;;;;;22.30;47.00;98914.34;109566;1251;72381;-52
2023/10/23 08:53:50;;;;;;;4.10;3.00;;;;;;;22.21;47.04;98922.75;109316;1251;61063;-52
2023/10/23 08:56:37;;;;;;;6.20;3.20;;;;;;;22.08;47.15;98916.52;109740;1251;59048;-52
2023/10/23 08:59:04;;;;;;;5.70;4.20;;;;;;;22.57;46.10;98933.08;109776;1250;74949;-53
2023/10/23 09:01:30;;;;;;;23.50;17.90;;;;;;;22.63;45.79;98934.01;109189;1256;67594;-53
2023/10/23 09:04:00;;;;;;;53.80;31.60;;;;;;;22.97;45.22;98940.32;109079;1255;72736;-53
2023/10/23 09:06:32;;;;;;;19.70;8.40;;;;;;;23.13;44.87;98935.27;109301;1255;60946;-52
2023/10/23 09:08:59;;;;;;;27.40;15.20;;;;;;;22.82;45.36;98931.08;109316;1256;59405;-52
2023/10/23 09:11:48;;;;;;;12.50;6.50;;;;;;;22.82;45.02;98921.78;109345;1256;74614;-53
2023/10/23 09:14:25;;;;;;;6.90;3.70;;;;;;;22.79;44.99;98934.68;108769;1262;68428;-51
2023/10/23 09:16:53;;;;;;;15.90;8.00;;;;;;;22.67;45.37;98937.72;108760;1262;71250;-51
2023/10/23 09:19:27;;;;;;;8.40;6.20;;;;;;;22.66;45.16;98935.27;108716;1263;60582;-52
2023/10/23 09:21:57;;;;;;;19.70;13.30;;;;;;;22.77;45.15;98937.74;108755;1262;59987;-52
2023/10/23 09:24:24;;;;;;;8.80;4.60;;;;;;;22.24;46.24;98927.35;108731;1263;73327;-52
2023/10/23 09:26:51;;;;;;;15.10;8.90;;;;;;;22.25;46.23;98936.77;108783;1262;68541;-51
2023/10/23 09:29:27;;;;;;;13.40;8.60;;;;;;;22.43;45.06;98936.19;108719;1263;71261;-52
2023/10/23 09:31:54;;;;;;;11.00;9.50;;;;;;;22.86;44.64;98938.48;108781;1260;61685;-52
2023/10/23 09:34:21;;;;;;;7.10;4.90;;;;;;;22.66;44.75;98930.48;108949;1259;58952;-52
2023/10/23 09:36:51;;;;;;;6.00;3.80;;;;;;;23.43;43.60;98946.66;108985;1259;72735;-53
2023/10/23 09:39:19;;;;;;;13.30;9.90;;;;;;;23.34;43.21;98943.54;108796;1260;67723;-53
2023/10/23 09:41:45;;;;;;;10.50;6.50;;;;;;;23.90;42.25;98945.26;108666;1258;72567;-52
2023/10/23 09:44:13;;;;;;;7.20;3.40;;;;;;;24.59;41.10;98944.46;109018;1259;60297;-53
2023/10/23 09:46:42;;;;;;;10.10;6.90;;;;;;;24.67;40.69;98942.95;108917;1260;60220;-52
2023/10/23 09:49:09;;;;;;;9.60;6.00;;;;;;;25.07;39.59;98949.27;108829;1259;76078;-53
2023/10/23 09:51:39;;;;;;;5.60;4.60;;;;;;;24.54;40.16;98945.77;109022;1254;67352;-50
2023/10/23 09:54:08;;;;;;;10.40;7.70;;;;;;;24.20;40.61;98935.10;109575;1252;73687;-53
2023/10/23 09:56:35;;;;;;;6.30;3.70;;;;;;;24.66;39.97;98939.96;109507;1252;60319;-52
2023/10/23 09:59:06;;;;;;;6.60;4.30;;;;;;;24.83;39.52;98933.22;109547;1252;59691;-53
2023/10/23 10:01:42;;;;;;;11.50;7.60;;;;;;;25.03;39.13;98943.55;109521;1252;73463;-51
2023/10/23 10:04:14;;;;;;;8.70;6.60;;;;;;;24.71;39.12;98940.39;109531;1252;68670;-51
2023/10/23 10:06:44;;;;;;;16.00;7.80;;;;;;;24.51;39.36;98946.65;109329;1252;73052;-51
2023/10/23 10:09:14;;;;;;;19.70;12.90;;;;;;;24.81;38.97;98939.62;109527;1252;59178;-51
2023/10/23 10:11:42;;;;;;;10.60;7.10;;;;;;;24.46;39.34;98943.56;109548;1252;60222;-51
2023/10/23 10:14:10;;;;;;;14.60;10.30;;;;;;;24.52;39.40;98951.76;109281;1252;74928;-51
2023/10/23 10:16:38;;;;;;;8.30;6.40;;;;;;;24.93;38.36;98950.84;109554;1252;68656;-51
2023/10/23 10:19:06;;;;;;;16.70;11.00;;;;;;;25.33;38.00;98945.72;109551;1253;72548;-51
2023/10/23 10:21:38;;;;;;;12.10;8.70;;;;;;;25.74;37.38;98948.42;109514;1253;60125;-51
2023/10/23 10:24:04;;;;;;;7.50;5.40;;;;;;;25.79;37.10;98949.50;109596;1252;60363;-51
2023/10/23 10:26:31;;;;;;;13.00;5.50;;;;;;;25.27;37.65;98954.65;109194;1255;74725;-51
2023/10/23 10:28:58;;;;;;;9.70;7.20;;;;;;;25.05;38.28;98959.20;109129;1254;67203;-52
2023/10/23 10:31:25;;;;;;;9.10;4.90;;;;;;;24.91;38.03;98944.73;109329;1253;71368;-51
2023/10/23 10:33:54;;;;;;;12.90;8.90;;;;;;;24.90;38.15;98952.64;109344;1253;59091;-51
2023/10/23 10:36:40;;;;;;;15.30;11.70;;;;;;;25.17;37.81;98961.55;109213;1254;60759;-51
2023/10/23 10:39:16;;;;;;;38.50;25.50;;;;;;;24.58;38.51;98955.39;109032;1254;74974;-52
2023/10/23 10:41:43;;;;;;;18.70;16.10;;;;;;;23.90;39.82;98961.07;109074;1254;67116;-52
2023/10/23 10:44:10;;;;;;;18.90;16.80;;;;;;;24.01;39.93;98962.34;109202;1255;72491;-52
2023/10/23 10:46:39;;;;;;;29.20;21.30;;;;;;;24.15;40.08;98962.72;109226;1254;60312;-51
2023/10/23 10:49:07;;;;;;;29.50;20.70;;;;;;;24.33;39.80;98962.95;109329;1254;60390;-52
2023/10/23 10:51:34;;;;;;;14.70;9.60;;;;;;;23.88;40.15;98956.79;109256;1255;73269;-52
2023/10/23 10:54:03;;;;;;;66.30;38.40;;;;;;;23.36;40.99;98956.73;109280;1254;67218;-51
2023/10/23 10:56:30;;;;;;;52.30;25.40;;;;;;;23.50;40.91;98969.10;109389;1254;72620;-52
2023/10/23 10:59:04;;;;;;;38.40;28.20;;;;;;;23.50;40.61;98967.79;109440;1254;59003;-52
2023/10/23 11:01:31;;;;;;;25.90;20.60;;;;;;;23.40;40.71;98969.66;109354;1251;59329;-52
2023/10/23 11:03:58;;;;;;;20.20;16.20;;;;;;;23.49;40.63;98976.77;109190;1251;74453;-50
2023/10/23 11:06:24;;;;;;;18.10;13.40;;;;;;;23.66;40.60;98976.40;109710;1250;68035;-51
2023/10/23 11:08:51;;;;;;;9.00;6.80;;;;;;;23.79;40.40;98975.67;109686;1250;72507;-52
2023/10/23 11:11:18;;;;;;;6.80;6.10;;;;;;;23.38;40.99;98980.40;109760;1251;61030;-52
2023/10/23 11:13:45;;;;;;;7.10;5.20;;;;;;;23.49;41.09;98982.16;109751;1250;58938;-52
2023/10/23 11:16:11;;;;;;;10.40;5.70;;;;;;;23.51;41.01;98988.15;109746;1251;73404;-52
2023/10/23 11:18:39;;;;;;;6.70;5.50;;;;;;;23.33;41.53;98977.00;109658;1251;67901;-51
2023/10/23 11:21:06;;;;;;;5.20;4.40;;;;;;;23.57;41.06;98985.72;109747;1251;72569;-52
2023/10/23 11:23:32;;;;;;;6.00;4.10;;;;;;;23.58;40.86;98984.42;109736;1250;58940;-51
2023/10/23 11:25:59;;;;;;;6.90;4.50;;;;;;;23.48;40.80;98984.89;109751;1251;60103;-52